CheckWX is a tool to help pilots better visualize weather data.  It is not intended as a substitute for an official pre-flight weather briefing.

12:50:36 UTC

ETHC TAF
Celle Airport
Germany
TAF ETHC 191003Z 1911/1920 31008KT 9999 NSW SCT040 SCT060

Sep-19@
11:00 UTC

Sep-19 @ 11:00 UTC

Sep-19@
20:00 UTC

Sep-19 @ 20:00 UTC

TAF ETHC 191003Z 1911/1920 31008KT 9999 NSW SCT040 SCT060
Wind
  • 310° at 8 KTS
Conditions
No significant weather
Cloud Levels
  • Scattered at 4,000' AGL
  • Scattered at 6,000' AGL